createdAt,value
2023-01-06T00:04:57.559Z,9.65
2023-01-06T00:09:58.752Z,9.65
2023-01-06T00:14:59.982Z,9.61
2023-01-06T00:20:01.166Z,9.59
2023-01-06T00:25:02.339Z,9.54
2023-01-06T00:30:03.477Z,9.48
2023-01-06T00:35:04.732Z,9.46
2023-01-06T00:40:05.879Z,9.45
2023-01-06T00:45:07.151Z,9.44
2023-01-06T00:50:08.327Z,9.46
2023-01-06T00:55:09.534Z,9.46
2023-01-06T01:00:10.710Z,9.44
2023-01-06T01:05:11.946Z,9.44
2023-01-06T01:10:13.099Z,9.43
2023-01-06T01:15:14.234Z,9.50
2023-01-06T01:20:15.421Z,9.49
2023-01-06T01:25:16.563Z,9.47
2023-01-06T01:30:17.754Z,9.49
2023-01-06T01:35:18.967Z,9.48
2023-01-06T01:40:20.195Z,9.47
2023-01-06T01:45:21.359Z,9.45
2023-01-06T01:50:22.579Z,9.46
2023-01-06T01:55:23.801Z,9.45
2023-01-06T02:00:24.967Z,9.43
2023-01-06T02:05:26.235Z,9.43
2023-01-06T02:10:27.458Z,9.40
2023-01-06T02:15:28.703Z,9.40
2023-01-06T02:20:29.881Z,9.39
2023-01-06T02:25:31.092Z,9.40
2023-01-06T02:30:32.229Z,9.36
2023-01-06T02:35:33.561Z,9.33
2023-01-06T02:40:34.748Z,9.32
2023-01-06T02:45:35.952Z,9.31
2023-01-06T02:50:37.204Z,9.31
2023-01-06T02:55:38.430Z,9.32
2023-01-06T03:00:40.150Z,9.29
2023-01-06T03:05:41.316Z,9.27
2023-01-06T03:10:42.512Z,9.24
2023-01-06T03:15:43.684Z,9.23
2023-01-06T03:20:45.177Z,9.22
2023-01-06T03:25:46.305Z,9.23
2023-01-06T03:30:47.491Z,9.22
2023-01-06T03:35:48.644Z,9.22
2023-01-06T03:40:49.821Z,9.19
2023-01-06T03:45:51.028Z,9.17
2023-01-06T03:50:52.299Z,9.16
2023-01-06T03:55:53.492Z,9.13
2023-01-06T04:00:54.642Z,9.11
2023-01-06T04:05:55.915Z,9.07
2023-01-06T04:10:57.048Z,9.06
2023-01-06T04:15:58.267Z,9.07
2023-01-06T04:20:59.484Z,9.05
2023-01-06T04:26:00.625Z,9.05
2023-01-06T04:31:01.845Z,9.04
2023-01-06T04:36:03.036Z,9.03
2023-01-06T04:41:04.210Z,9.02
2023-01-06T04:46:05.458Z,9.01
2023-01-06T04:51:06.658Z,9.05
2023-01-06T04:56:07.920Z,9.07
2023-01-06T05:01:09.254Z,9.06
2023-01-06T05:06:10.619Z,9.06
2023-01-06T05:11:11.789Z,9.07
2023-01-06T05:16:13.008Z,9.07
2023-01-06T05:21:14.194Z,9.07
2023-01-06T05:26:15.419Z,9.11
2023-01-06T05:31:16.623Z,9.12
2023-01-06T05:36:17.829Z,9.11
2023-01-06T05:41:19.116Z,9.11
2023-01-06T05:46:20.283Z,9.09
2023-01-06T05:51:21.497Z,9.10
2023-01-06T05:56:22.753Z,9.12
2023-01-06T06:01:23.989Z,9.16
2023-01-06T06:06:25.290Z,9.15
2023-01-06T06:11:26.496Z,9.11
2023-01-06T06:16:27.843Z,9.08
2023-01-06T06:21:29.099Z,9.11
2023-01-06T06:26:30.270Z,9.17
2023-01-06T06:31:31.473Z,9.22
2023-01-06T06:36:32.674Z,9.26
2023-01-06T06:41:33.869Z,9.30
2023-01-06T06:46:35.029Z,9.35
2023-01-06T06:51:36.902Z,9.33
2023-01-06T06:56:38.206Z,9.30
2023-01-06T07:01:39.464Z,9.30
2023-01-06T07:06:40.628Z,9.37
2023-01-06T07:11:41.823Z,9.43
2023-01-06T07:16:43.012Z,9.46
2023-01-06T07:21:44.212Z,9.43
2023-01-06T07:26:45.393Z,9.49
2023-01-06T07:31:46.674Z,9.51
2023-01-06T07:36:47.875Z,9.53
2023-01-06T07:41:49.069Z,9.46
2023-01-06T07:46:50.207Z,9.56
2023-01-06T07:51:51.361Z,9.55
2023-01-06T07:56:52.573Z,9.54
2023-01-06T08:01:53.859Z,9.55
2023-01-06T08:06:55.119Z,9.55
2023-01-06T08:11:57.824Z,9.57
2023-01-06T08:16:59.040Z,9.62
2023-01-06T08:22:00.185Z,9.65
2023-01-06T08:27:01.490Z,9.75
2023-01-06T08:32:10.446Z,9.82
2023-01-06T08:37:12.214Z,9.87
2023-01-06T08:42:13.395Z,9.86
2023-01-06T08:47:14.588Z,9.82
2023-01-06T08:52:15.786Z,9.78
2023-01-06T08:57:17.126Z,9.80
2023-01-06T09:02:18.315Z,9.87
2023-01-06T09:07:19.494Z,9.95
2023-01-06T09:12:20.695Z,10.06
2023-01-06T09:17:21.879Z,10.15
2023-01-06T09:22:23.116Z,10.18
2023-01-06T09:27:24.330Z,10.23
2023-01-06T09:32:25.505Z,10.30
2023-01-06T09:37:26.740Z,10.39
2023-01-06T09:42:27.932Z,10.45
2023-01-06T09:47:29.081Z,10.47
2023-01-06T09:52:31.301Z,10.47
2023-01-06T09:57:32.524Z,10.48
2023-01-06T10:02:33.727Z,10.57
2023-01-06T10:07:34.921Z,10.57
2023-01-06T10:12:36.088Z,10.61
2023-01-06T10:17:37.280Z,10.65
2023-01-06T10:22:38.569Z,10.77
2023-01-06T10:27:39.846Z,10.83
2023-01-06T10:32:42.821Z,10.88
2023-01-06T10:37:44.240Z,10.89
2023-01-06T10:42:57.795Z,10.89
2023-01-06T10:47:59.100Z,10.87
2023-01-06T10:53:00.277Z,10.92
2023-01-06T10:58:01.466Z,10.98
2023-01-06T11:03:31.271Z,10.97
2023-01-06T11:08:24.537Z,10.90
2023-01-06T11:13:25.740Z,10.95
2023-01-06T11:18:26.959Z,11.07
2023-01-06T11:23:29.606Z,11.28
2023-01-06T11:28:30.927Z,11.44
2023-01-06T11:33:32.075Z,11.44
2023-01-06T11:38:33.268Z,11.36
2023-01-06T11:43:34.466Z,11.38
2023-01-06T11:48:35.646Z,11.45
2023-01-06T11:53:37.018Z,11.48
2023-01-06T11:58:38.186Z,11.51
2023-01-06T12:03:41.497Z,11.49
2023-01-06T12:08:42.833Z,11.52
2023-01-06T12:13:44.953Z,11.43
2023-01-06T12:18:52.111Z,11.24
2023-01-06T12:23:53.255Z,10.87
2023-01-06T12:28:54.492Z,10.74
2023-01-06T12:33:55.780Z,10.75
2023-01-06T12:38:57.157Z,10.83
2023-01-06T12:43:58.567Z,10.79
2023-01-06T12:48:59.805Z,10.78
2023-01-06T12:54:00.998Z,10.88
2023-01-06T12:59:02.262Z,11.03
2023-01-06T13:04:03.534Z,11.01
2023-01-06T13:09:06.280Z,10.95
2023-01-06T13:14:07.668Z,10.82
2023-01-06T13:19:08.876Z,10.81
2023-01-06T13:24:10.029Z,10.86
2023-01-06T13:29:11.287Z,10.98
2023-01-06T13:34:12.501Z,11.09
2023-01-06T13:39:13.657Z,11.15
2023-01-06T13:44:14.866Z,11.19
2023-01-06T13:49:16.052Z,11.07
2023-01-06T13:54:17.245Z,10.98
2023-01-06T13:59:18.659Z,10.93
2023-01-06T14:04:19.823Z,10.89
2023-01-06T14:09:20.992Z,10.84
2023-01-06T14:14:25.015Z,10.72
2023-01-06T14:19:26.966Z,10.60
2023-01-06T14:24:31.435Z,10.53
2023-01-06T14:29:32.692Z,10.50
2023-01-06T14:34:33.881Z,10.44
2023-01-06T14:39:35.125Z,10.44
2023-01-06T14:44:36.680Z,10.43
2023-01-06T14:49:37.864Z,10.38
2023-01-06T14:54:39.006Z,10.36
2023-01-06T14:59:40.216Z,10.38
2023-01-06T15:04:41.406Z,10.36
2023-01-06T15:09:42.740Z,10.31
2023-01-06T15:14:43.896Z,10.29
2023-01-06T15:19:45.105Z,10.29
2023-01-06T15:24:46.292Z,10.29
2023-01-06T15:29:47.477Z,10.27
2023-01-06T15:34:50.450Z,10.23
2023-01-06T15:39:51.593Z,10.20
2023-01-06T15:44:52.765Z,10.18
2023-01-06T15:49:54.307Z,10.16
2023-01-06T15:54:55.503Z,10.12
2023-01-06T15:59:56.746Z,10.09
2023-01-06T16:04:59.427Z,10.09
2023-01-06T16:10:00.812Z,10.08
2023-01-06T16:15:02.015Z,10.08
2023-01-06T16:20:03.287Z,10.09
2023-01-06T16:25:04.560Z,10.09
2023-01-06T16:30:05.739Z,10.08
2023-01-06T16:35:06.961Z,9.96
2023-01-06T16:40:08.247Z,9.74
2023-01-06T16:45:09.487Z,9.60
2023-01-06T16:50:10.867Z,9.48
2023-01-06T16:55:12.051Z,9.59
2023-01-06T17:00:14.135Z,9.67
2023-01-06T17:05:15.337Z,9.70
2023-01-06T17:10:16.521Z,9.78
2023-01-06T17:15:17.713Z,9.80
2023-01-06T17:20:18.916Z,9.63
2023-01-06T17:25:20.370Z,9.82
2023-01-06T17:30:21.781Z,9.78
2023-01-06T17:35:22.917Z,9.79
2023-01-06T17:40:24.128Z,9.80
2023-01-06T17:45:25.407Z,9.82
2023-01-06T17:50:26.642Z,9.81
2023-01-06T17:55:43.077Z,9.80
2023-01-06T18:00:44.353Z,9.80
2023-01-06T18:05:45.612Z,9.81
2023-01-06T18:10:46.843Z,9.77
2023-01-06T18:15:47.996Z,9.70
2023-01-06T18:20:49.260Z,9.64
2023-01-06T18:25:50.431Z,9.60
2023-01-06T18:30:51.680Z,9.57
2023-01-06T18:35:57.374Z,9.63
2023-01-06T18:40:58.974Z,9.66
2023-01-06T18:46:00.503Z,9.69
2023-01-06T18:51:01.824Z,9.73
2023-01-06T18:56:03.043Z,9.74
2023-01-06T19:01:04.295Z,9.78
2023-01-06T19:06:05.525Z,9.79
2023-01-06T19:11:06.790Z,9.82
2023-01-06T19:16:08.017Z,9.84
2023-01-06T19:21:09.226Z,9.85
2023-01-06T19:26:10.491Z,9.86
2023-01-06T19:31:11.732Z,9.85
2023-01-06T19:36:12.963Z,9.87
2023-01-06T19:41:14.192Z,9.88
2023-01-06T19:46:15.458Z,9.88
2023-01-06T19:51:16.670Z,9.86
2023-01-06T19:56:18.348Z,9.85
2023-01-06T20:01:19.678Z,9.86
2023-01-06T20:06:20.931Z,9.86
2023-01-06T20:11:22.883Z,9.85
2023-01-06T20:16:24.304Z,9.86
2023-01-06T20:21:25.601Z,9.84
2023-01-06T20:26:26.812Z,9.80
2023-01-06T20:31:27.975Z,9.75
2023-01-06T20:36:29.184Z,9.72
2023-01-06T20:41:30.391Z,9.68
2023-01-06T20:46:31.541Z,9.66
2023-01-06T20:51:32.676Z,9.64
2023-01-06T20:56:33.845Z,9.62
2023-01-06T21:01:35.094Z,9.60
2023-01-06T21:06:36.576Z,9.57
2023-01-06T21:11:37.832Z,9.57
2023-01-06T21:16:39.077Z,9.56
2023-01-06T21:21:40.319Z,9.57
2023-01-06T21:26:41.560Z,9.59
2023-01-06T21:31:43.800Z,9.59
2023-01-06T21:36:45.082Z,9.61
2023-01-06T21:42:05.131Z,9.34
2023-01-06T21:47:06.343Z,9.63
2023-01-06T21:52:07.653Z,9.63
2023-01-06T21:57:08.942Z,9.63
2023-01-06T22:02:10.283Z,9.62
2023-01-06T22:07:11.649Z,9.65
2023-01-06T22:12:12.960Z,9.66
2023-01-06T22:17:14.128Z,9.65
2023-01-06T22:22:15.344Z,9.64
2023-01-06T22:27:16.599Z,9.64
2023-01-06T22:32:17.808Z,9.62
2023-01-06T22:37:19.067Z,9.60
2023-01-06T22:42:22.464Z,9.57
2023-01-06T22:47:23.782Z,9.56
2023-01-06T22:52:25.048Z,9.57
2023-01-06T22:57:26.192Z,9.58
2023-01-06T23:02:27.487Z,9.58
2023-01-06T23:07:28.767Z,9.60
2023-01-06T23:12:29.984Z,9.62
2023-01-06T23:17:31.152Z,9.65
2023-01-06T23:22:32.335Z,9.64
2023-01-06T23:27:33.502Z,9.62
2023-01-06T23:32:34.648Z,9.58
2023-01-06T23:37:35.886Z,9.55
2023-01-06T23:42:40.916Z,9.52
2023-01-06T23:47:49.154Z,9.51
2023-01-06T23:52:50.368Z,9.52
2023-01-06T23:57:51.586Z,9.54
